Accueil
METAR-TAF:

METAR-TAF

Aéroports :

Aéroport Cristiano-Ronaldo

Funchal, Madère, Portugal

latitude: 32-41-52N, longitude: 016-46-28W, altitude: 59 m

Observation

Le bulletin a été fait il y a 42 minutes, à 06:30 UTC
Vent 13 kt de nord, variant entre nord/nord-ouest et nord/nord-est
Température 21°C
Humidité 73%
Pression 1020 hPa
Visibilité 10 km ou plus
Nuages épars à une hauteur de 1400 ft

METAR: LPMA 030630Z 01013KT 330V030 9999 SCT014 21/16 Q1020

Heure: 08:12 (07:12 UTC)

Prévision

Le bulletin a été fait il y a 2 heures et 12 minutes, à 05:00 UTC
Prévision valable du 03 à 06 UTC au 04 à 06 UTC
Vent 13 kt de nord/nord-est
Visibilité 10 km ou plus
Nuages épars à une hauteur de 1500 ft
Temporairement
du 03 à 06 UTC au 04 à 06 UTC
Vent 18 kt de nord avec des rafales jusqu'à 30 kt

TAF: LPMA 030500Z 0306/0406 02013KT 9999 SCT015 TEMPO 0306/0406 01018G30KT

Observations et prévisions météorologiques de plus de 4000 aéroports (messages METAR et TAF).

Les stations disponibles sont représentées par des disques jaunes et rouges sur la carte.

Passer la souris dessus pour voir le nom de la station.

Cliquer dessus pour voir les observations et prévisions météorologiques.

Pour changer de carte: cliquez sur les boutons verts avec une croix noire pour zoomer, sur le bouton vert avec un tiret pour effectuer un zoom arrière, ou sur les flèches vertes pour les cartes adjacentes.


METAR-TAF: